createdAt,value
2023-01-17T00:00:43.019Z,38.05
2023-01-17T00:03:25.858Z,32.13
2023-01-17T00:06:13.183Z,34.15
2023-01-17T00:08:59.976Z,33.25
2023-01-17T00:11:31.119Z,28.85
2023-01-17T00:14:00.864Z,27.98
2023-01-17T00:16:30.404Z,30.23
2023-01-17T00:19:16.942Z,29.05
2023-01-17T00:22:00.275Z,28.45
2023-01-17T00:24:47.191Z,24.67
2023-01-17T00:27:16.978Z,29.90
2023-01-17T00:29:45.044Z,25.98
2023-01-17T00:32:15.241Z,32.58
2023-01-17T00:34:43.420Z,25.55
2023-01-17T00:37:11.829Z,28.67
2023-01-17T00:39:39.819Z,28.85
2023-01-17T00:42:08.227Z,26.92
2023-01-17T00:44:56.476Z,26.73
2023-01-17T00:47:43.546Z,29.02
2023-01-17T00:50:30.362Z,32.33
2023-01-17T00:53:21.793Z,27.55
2023-01-17T00:56:08.216Z,27.65
2023-01-17T00:58:55.398Z,27.20
2023-01-17T01:01:43.441Z,27.80
2023-01-17T01:04:30.603Z,26.33
2023-01-17T01:07:18.214Z,25.10
2023-01-17T01:10:05.364Z,28.08
2023-01-17T01:12:52.255Z,25.75
2023-01-17T01:15:39.315Z,29.38
2023-01-17T01:18:29.937Z,27.63
2023-01-17T01:21:21.831Z,27.92
2023-01-17T01:24:08.385Z,31.10
2023-01-17T01:26:55.407Z,30.05
2023-01-17T01:29:42.466Z,31.13
2023-01-17T01:32:29.601Z,28.30
2023-01-17T01:35:00.224Z,27.60
2023-01-17T01:37:29.838Z,27.80
2023-01-17T01:39:59.222Z,26.77
2023-01-17T01:42:28.773Z,31.02
2023-01-17T01:44:58.294Z,32.92
2023-01-17T01:47:33.088Z,28.77
2023-01-17T01:50:08.439Z,29.80
2023-01-17T01:55:16.667Z,28.88
2023-01-17T01:57:50.241Z,32.28
2023-01-17T02:00:24.941Z,29.10
2023-01-17T02:02:57.293Z,26.40
2023-01-17T02:05:29.461Z,28.50
2023-01-17T02:08:04.007Z,25.77
2023-01-17T02:10:34.377Z,30.25
2023-01-17T02:13:05.043Z,30.70
2023-01-17T02:15:42.337Z,27.45
2023-01-17T02:18:23.134Z,29.50
2023-01-17T02:21:16.300Z,28.95
2023-01-17T02:24:36.857Z,26.80
2023-01-17T02:27:15.487Z,24.02
2023-01-17T02:30:14.585Z,24.80
2023-01-17T02:33:02.701Z,24.98
2023-01-17T02:35:39.579Z,25.83
2023-01-17T02:38:25.798Z,22.15
2023-01-17T02:41:01.611Z,28.58
2023-01-17T02:43:31.341Z,24.35
2023-01-17T02:46:00.848Z,25.75
2023-01-17T02:48:34.840Z,20.52
2023-01-17T02:51:25.443Z,22.65
2023-01-17T02:54:05.193Z,20.73
2023-01-17T02:56:45.178Z,29.30
2023-01-17T02:59:31.073Z,21.15
2023-01-17T03:04:43.234Z,26.08
2023-01-17T03:07:17.597Z,24.85
2023-01-17T03:09:50.043Z,22.48
2023-01-17T03:12:20.631Z,24.50
2023-01-17T03:14:49.882Z,28.80
2023-01-17T03:17:19.704Z,24.60
2023-01-17T03:19:50.277Z,26.35
2023-01-17T03:22:19.930Z,26.88
2023-01-17T03:24:49.213Z,21.95
2023-01-17T03:27:18.757Z,23.60
2023-01-17T03:29:48.036Z,27.73
2023-01-17T03:36:41.295Z,21.40
2023-01-17T03:39:11.908Z,18.70
2023-01-17T03:41:41.689Z,27.33
2023-01-17T03:44:11.086Z,22.48
2023-01-17T03:46:40.670Z,25.55
2023-01-17T03:49:10.282Z,21.10
2023-01-17T03:51:41.246Z,19.52
2023-01-17T03:54:10.767Z,23.55
2023-01-17T03:56:40.464Z,21.23
2023-01-17T03:59:12.182Z,18.00
2023-01-17T04:01:42.720Z,20.75
2023-01-17T04:04:12.006Z,21.83
2023-01-17T04:06:42.927Z,18.42
2023-01-17T04:09:12.462Z,18.80
2023-01-17T04:11:41.876Z,18.48
2023-01-17T04:14:11.065Z,16.35
2023-01-17T04:16:40.690Z,17.90
2023-01-17T04:19:13.151Z,21.13
2023-01-17T04:21:44.157Z,21.00
2023-01-17T04:24:13.551Z,17.75
2023-01-17T04:26:43.088Z,15.50
2023-01-17T04:29:12.312Z,17.20
2023-01-17T04:31:41.957Z,18.90
2023-01-17T04:34:11.227Z,16.77
2023-01-17T04:36:40.900Z,17.17
2023-01-17T04:39:11.518Z,19.98
2023-01-17T04:41:41.184Z,17.38
2023-01-17T04:44:10.432Z,17.38
2023-01-17T04:46:39.900Z,17.20
2023-01-17T04:49:09.305Z,14.05
2023-01-17T04:51:38.826Z,18.30
2023-01-17T04:54:08.107Z,17.48
2023-01-17T04:56:39.107Z,16.30
2023-01-17T04:59:08.528Z,15.15
2023-01-17T05:01:38.234Z,20.45
2023-01-17T05:04:07.972Z,14.60
2023-01-17T05:06:37.855Z,17.20
2023-01-17T05:09:07.870Z,15.23
2023-01-17T05:11:39.063Z,16.08
2023-01-17T05:14:08.271Z,18.40
2023-01-17T05:16:37.845Z,19.20
2023-01-17T05:19:07.226Z,15.75
2023-01-17T05:21:36.851Z,18.30
2023-01-17T05:24:06.750Z,20.45
2023-01-17T05:26:37.651Z,16.48
2023-01-17T05:29:07.012Z,17.85
2023-01-17T05:31:36.876Z,17.58
2023-01-17T05:34:06.334Z,16.00
2023-01-17T05:36:35.962Z,16.45
2023-01-17T05:39:05.278Z,16.52
2023-01-17T05:41:34.807Z,18.98
2023-01-17T05:44:05.508Z,17.63
2023-01-17T05:46:35.055Z,33.08
2023-01-17T05:49:04.906Z,19.48
2023-01-17T05:51:37.765Z,20.80
2023-01-17T05:54:07.372Z,18.55
2023-01-17T05:56:36.944Z,16.80
2023-01-17T05:59:07.575Z,18.77
2023-01-17T06:01:37.170Z,16.95
2023-01-17T06:04:06.644Z,16.70
2023-01-17T06:06:36.114Z,19.58
2023-01-17T06:09:05.534Z,21.23
2023-01-17T06:11:35.468Z,17.48
2023-01-17T06:14:06.146Z,19.63
2023-01-17T06:16:36.221Z,19.77
2023-01-17T06:19:05.481Z,16.40
2023-01-17T06:21:35.182Z,14.43
2023-01-17T06:24:04.525Z,21.02
2023-01-17T06:26:34.600Z,21.05
2023-01-17T06:29:03.882Z,21.00
2023-01-17T06:31:34.802Z,19.45
2023-01-17T06:34:04.322Z,17.75
2023-01-17T06:36:35.020Z,20.35
2023-01-17T06:39:04.431Z,17.55
2023-01-17T06:41:34.015Z,21.40
2023-01-17T06:44:03.516Z,19.23
2023-01-17T06:46:34.679Z,16.60
2023-01-17T06:49:04.151Z,19.67
2023-01-17T06:51:33.664Z,24.95
2023-01-17T06:54:02.952Z,18.60
2023-01-17T06:56:33.270Z,20.90
2023-01-17T06:59:02.478Z,21.75
2023-01-17T07:01:33.516Z,17.33
2023-01-17T07:04:03.196Z,19.08
2023-01-17T07:06:32.762Z,21.25
2023-01-17T07:09:03.590Z,22.10
2023-01-17T07:11:33.612Z,20.70
2023-01-17T07:14:02.889Z,21.13
2023-01-17T07:16:35.210Z,20.27
2023-01-17T07:19:04.697Z,21.73
2023-01-17T07:21:34.200Z,21.88
2023-01-17T07:24:03.604Z,18.38
2023-01-17T07:26:33.534Z,23.20
2023-01-17T07:29:02.886Z,21.20
2023-01-17T07:31:36.788Z,25.05
2023-01-17T07:34:06.106Z,27.08
2023-01-17T07:36:36.038Z,22.90
2023-01-17T07:39:06.434Z,22.42
2023-01-17T07:41:41.520Z,23.77
2023-01-17T07:44:11.653Z,25.93
2023-01-17T07:46:42.675Z,27.17
2023-01-17T07:49:11.962Z,30.45
2023-01-17T07:51:41.465Z,28.08
2023-01-17T07:54:12.488Z,25.38
2023-01-17T07:56:45.544Z,30.25
2023-01-17T07:59:14.877Z,23.92
2023-01-17T08:01:46.327Z,26.52
2023-01-17T08:04:16.014Z,26.80
2023-01-17T08:06:47.638Z,21.83
2023-01-17T08:09:16.946Z,25.90
2023-01-17T08:11:46.458Z,24.95
2023-01-17T08:14:15.657Z,29.10
2023-01-17T08:16:46.684Z,25.33
2023-01-17T08:19:17.535Z,24.08
2023-01-17T08:21:47.129Z,21.77
2023-01-17T08:24:17.504Z,26.88
2023-01-17T08:26:46.971Z,25.33
2023-01-17T08:29:16.309Z,29.20
2023-01-17T08:31:47.249Z,25.33
2023-01-17T08:34:17.090Z,25.90
2023-01-17T08:36:47.986Z,27.88
2023-01-17T08:39:17.417Z,28.25
2023-01-17T08:41:47.230Z,33.83
2023-01-17T08:44:16.505Z,27.88
2023-01-17T08:46:47.390Z,22.17
2023-01-17T08:49:16.615Z,29.02
2023-01-17T08:51:46.196Z,27.48
2023-01-17T08:54:15.576Z,25.27
2023-01-17T08:56:46.967Z,31.00
2023-01-17T08:59:16.524Z,22.42
2023-01-17T09:01:47.712Z,27.25
2023-01-17T09:04:17.680Z,27.77
2023-01-17T09:06:48.474Z,25.05
2023-01-17T09:09:18.644Z,24.88
2023-01-17T09:11:48.266Z,25.75
2023-01-17T09:14:17.745Z,24.95
2023-01-17T09:16:49.273Z,26.65
2023-01-17T09:19:18.603Z,23.42
2023-01-17T09:21:48.113Z,23.80
2023-01-17T09:24:17.687Z,28.27
2023-01-17T09:26:47.240Z,28.90
2023-01-17T09:29:17.984Z,35.28
2023-01-17T09:31:48.994Z,28.27
2023-01-17T09:34:18.662Z,34.05
2023-01-17T09:36:48.457Z,26.67
2023-01-17T09:39:17.815Z,26.58
2023-01-17T09:41:54.080Z,26.55
2023-01-17T09:44:29.433Z,29.13
2023-01-17T09:47:06.168Z,29.25
2023-01-17T09:49:40.949Z,29.33
2023-01-17T09:52:13.849Z,32.30
2023-01-17T09:54:45.819Z,29.25
2023-01-17T09:57:29.941Z,26.10
2023-01-17T10:00:07.801Z,25.80
2023-01-17T10:03:01.970Z,26.33
2023-01-17T10:05:49.958Z,27.27
2023-01-17T10:08:32.768Z,23.63
2023-01-17T10:11:17.736Z,24.98
2023-01-17T10:13:57.872Z,29.47
2023-01-17T10:16:36.591Z,28.70
2023-01-17T10:19:19.843Z,26.38
2023-01-17T10:22:04.294Z,24.65
2023-01-17T10:24:53.052Z,30.05
2023-01-17T10:27:26.541Z,25.40
2023-01-17T10:29:56.085Z,26.25
2023-01-17T10:32:30.285Z,27.80
2023-01-17T10:35:06.825Z,27.02
2023-01-17T10:37:41.989Z,25.52
2023-01-17T10:40:21.807Z,24.98
2023-01-17T10:42:58.924Z,22.38
2023-01-17T10:45:29.948Z,29.73
2023-01-17T10:48:12.236Z,25.80
2023-01-17T10:50:50.980Z,26.42
2023-01-17T10:53:37.615Z,26.80
2023-01-17T10:56:08.349Z,26.85
2023-01-17T10:58:37.527Z,24.85
2023-01-17T11:01:15.336Z,24.17
2023-01-17T11:03:45.570Z,28.77
2023-01-17T11:06:22.670Z,28.90
2023-01-17T11:08:54.303Z,24.95
2023-01-17T11:11:30.153Z,27.63
2023-01-17T11:14:02.093Z,22.33
2023-01-17T11:16:32.992Z,29.48
2023-01-17T11:19:16.462Z,29.52
2023-01-17T11:21:57.761Z,26.42
2023-01-17T11:24:34.475Z,27.60
2023-01-17T11:27:06.611Z,23.63
2023-01-17T11:29:38.981Z,28.20
2023-01-17T11:32:32.089Z,22.90
2023-01-17T11:35:16.669Z,24.13
2023-01-17T11:37:59.333Z,22.83
2023-01-17T11:40:31.734Z,22.50
2023-01-17T11:43:18.815Z,20.95
2023-01-17T11:46:00.891Z,22.45
2023-01-17T11:48:37.871Z,25.90
2023-01-17T11:51:19.033Z,20.88
2023-01-17T11:53:50.305Z,25.50
2023-01-17T11:56:28.040Z,23.40
2023-01-17T11:59:19.242Z,23.13
2023-01-17T12:01:55.811Z,23.27
2023-01-17T12:04:29.809Z,24.90
2023-01-17T12:07:24.936Z,20.77
2023-01-17T12:10:05.475Z,23.80
2023-01-17T12:13:04.221Z,17.45
2023-01-17T12:15:55.061Z,22.65
2023-01-17T12:18:45.342Z,21.27
2023-01-17T12:21:18.543Z,20.38
2023-01-17T12:24:04.695Z,18.20
2023-01-17T12:26:41.528Z,16.25
2023-01-17T12:29:41.560Z,18.80
2023-01-17T12:32:33.068Z,19.08
2023-01-17T12:35:07.457Z,16.50
2023-01-17T12:37:40.248Z,25.07
2023-01-17T12:40:24.119Z,21.58
2023-01-17T12:43:00.409Z,18.55
2023-01-17T12:45:34.541Z,18.98
2023-01-17T12:48:11.353Z,18.35
2023-01-17T12:50:44.967Z,16.70
2023-01-17T12:53:25.616Z,18.80
2023-01-17T12:56:01.240Z,15.40
2023-01-17T12:58:39.554Z,13.20
2023-01-17T13:01:17.174Z,19.85
2023-01-17T13:03:57.904Z,16.95
2023-01-17T13:06:33.931Z,15.70
2023-01-17T13:09:05.669Z,15.68
2023-01-17T13:11:44.117Z,15.85
2023-01-17T13:14:15.118Z,16.42
2023-01-17T13:16:50.615Z,16.27
2023-01-17T13:19:31.656Z,16.13
2023-01-17T13:22:05.522Z,14.82
2023-01-17T13:24:45.532Z,16.10
2023-01-17T13:27:42.244Z,14.70
2023-01-17T13:30:46.763Z,12.43
2023-01-17T13:33:47.611Z,17.30
2023-01-17T13:36:35.941Z,18.17
2023-01-17T13:39:25.193Z,16.05
2023-01-17T13:42:02.905Z,12.60
2023-01-17T13:44:32.302Z,15.60
2023-01-17T13:47:06.701Z,11.95
2023-01-17T13:49:46.061Z,13.48
2023-01-17T13:52:33.560Z,14.20
2023-01-17T13:55:04.189Z,14.55
2023-01-17T13:57:46.789Z,12.57
2023-01-17T14:00:55.078Z,12.80
2023-01-17T14:04:05.305Z,18.63
2023-01-17T14:06:41.807Z,11.77
2023-01-17T14:09:23.878Z,12.30
2023-01-17T14:11:58.109Z,17.73
2023-01-17T14:14:52.247Z,13.02
2023-01-17T14:17:50.044Z,12.50
2023-01-17T14:21:06.132Z,12.88
2023-01-17T14:24:08.081Z,10.70
2023-01-17T14:26:49.872Z,12.15
2023-01-17T14:30:00.675Z,14.65
2023-01-17T14:32:33.461Z,11.05
2023-01-17T14:35:03.466Z,14.48
2023-01-17T14:37:44.388Z,8.88
2023-01-17T14:40:20.454Z,8.93
2023-01-17T14:42:55.141Z,10.50
2023-01-17T14:45:29.990Z,10.98
2023-01-17T14:48:02.318Z,10.75
2023-01-17T14:50:37.051Z,11.27
2023-01-17T14:53:19.354Z,9.52
2023-01-17T14:55:55.248Z,7.57
2023-01-17T14:58:26.771Z,10.82
2023-01-17T15:01:01.095Z,9.60
2023-01-17T15:03:31.315Z,10.25
2023-01-17T15:06:11.321Z,7.28
2023-01-17T15:08:42.828Z,9.52
2023-01-17T15:11:18.145Z,11.13
2023-01-17T15:13:50.950Z,8.57
2023-01-17T15:16:23.557Z,11.27
2023-01-17T15:18:54.157Z,9.45
2023-01-17T15:21:25.469Z,6.78
2023-01-17T15:23:58.386Z,8.93
2023-01-17T15:26:30.862Z,15.90
2023-01-17T15:29:05.420Z,6.57
2023-01-17T15:31:43.781Z,7.70
2023-01-17T15:34:23.701Z,9.38
2023-01-17T15:36:53.741Z,8.70
2023-01-17T15:39:30.408Z,9.05
2023-01-17T15:42:02.966Z,8.90
2023-01-17T15:44:47.517Z,10.50
2023-01-17T15:47:29.916Z,7.97
2023-01-17T15:50:00.688Z,6.95
2023-01-17T15:52:30.478Z,9.98
2023-01-17T15:55:14.039Z,10.43
2023-01-17T15:57:48.672Z,7.95
2023-01-17T16:00:26.354Z,9.83
2023-01-17T16:02:57.748Z,7.85
2023-01-17T16:05:41.878Z,6.47
2023-01-17T16:08:38.659Z,9.15
2023-01-17T16:11:12.728Z,7.70
2023-01-17T16:13:43.524Z,6.90
2023-01-17T16:16:15.498Z,6.65
2023-01-17T16:18:46.579Z,7.95
2023-01-17T16:21:25.602Z,8.38
2023-01-17T16:23:56.430Z,11.40
2023-01-17T16:26:29.179Z,8.38
2023-01-17T16:28:58.884Z,9.07
2023-01-17T16:31:28.565Z,11.35
2023-01-17T16:33:57.891Z,9.45
2023-01-17T16:36:27.496Z,9.45
2023-01-17T16:38:56.709Z,13.00
2023-01-17T16:41:27.537Z,8.45
2023-01-17T16:44:02.147Z,10.70
2023-01-17T16:46:32.196Z,10.70
2023-01-17T16:49:02.372Z,11.98
2023-01-17T16:51:32.426Z,12.60
2023-01-17T16:54:03.165Z,10.18
2023-01-17T16:56:34.171Z,9.80
2023-01-17T16:59:03.365Z,12.65
2023-01-17T17:01:33.056Z,13.60
2023-01-17T17:04:02.364Z,12.25
2023-01-17T17:06:32.471Z,12.00
2023-01-17T17:09:01.789Z,12.13
2023-01-17T17:11:33.107Z,9.73
2023-01-17T17:14:03.096Z,9.10
2023-01-17T17:16:32.988Z,10.95
2023-01-17T17:19:04.248Z,9.55
2023-01-17T17:21:37.553Z,8.35
2023-01-17T17:24:07.487Z,7.47
2023-01-17T17:26:39.045Z,7.18
2023-01-17T17:29:12.182Z,9.45
2023-01-17T17:31:43.104Z,7.55
2023-01-17T17:34:13.437Z,10.48
2023-01-17T17:36:43.881Z,8.07
2023-01-17T17:39:15.930Z,12.15
2023-01-17T17:41:47.205Z,9.68
2023-01-17T17:44:17.610Z,7.82
2023-01-17T17:46:49.299Z,7.88
2023-01-17T17:49:18.535Z,11.18
2023-01-17T17:51:48.058Z,7.80
2023-01-17T17:54:18.705Z,8.02
2023-01-17T17:56:49.946Z,6.70
2023-01-17T17:59:19.802Z,4.72
2023-01-17T18:01:49.946Z,5.35
2023-01-17T18:04:20.125Z,4.93
2023-01-17T18:06:49.779Z,3.47
2023-01-17T18:09:19.337Z,5.45
2023-01-17T18:11:50.294Z,3.88
2023-01-17T18:14:22.151Z,3.97
2023-01-17T18:16:52.342Z,40.38
2023-01-17T18:19:23.856Z,4.03
2023-01-17T18:21:54.209Z,5.10
2023-01-17T18:24:25.029Z,6.97
2023-01-17T18:26:57.653Z,5.00
2023-01-17T18:29:28.432Z,7.40
2023-01-17T18:31:58.010Z,5.30
2023-01-17T18:34:29.499Z,6.90
2023-01-17T18:36:59.694Z,10.30
2023-01-17T18:39:30.428Z,7.30
2023-01-17T18:42:02.165Z,6.63
2023-01-17T18:44:31.505Z,4.82
2023-01-17T18:47:04.634Z,4.13
2023-01-17T18:49:34.503Z,8.18
2023-01-17T18:52:05.258Z,8.65
2023-01-17T18:54:34.611Z,10.77
2023-01-17T18:57:05.550Z,7.97
2023-01-17T18:59:34.965Z,7.07
2023-01-17T19:02:04.543Z,8.15
2023-01-17T19:04:35.961Z,6.68
2023-01-17T19:07:05.640Z,4.65
2023-01-17T19:09:35.121Z,6.68
2023-01-17T19:12:06.386Z,5.65
2023-01-17T19:14:35.763Z,6.55
2023-01-17T19:17:05.284Z,7.47
2023-01-17T19:19:34.668Z,4.10
2023-01-17T19:22:04.227Z,10.73
2023-01-17T19:24:35.824Z,6.53
2023-01-17T19:27:07.300Z,6.50
2023-01-17T19:29:36.985Z,8.00
2023-01-17T19:32:07.419Z,9.07
2023-01-17T19:34:36.820Z,6.10
2023-01-17T19:37:06.659Z,7.22
2023-01-17T19:39:35.888Z,6.65
2023-01-17T19:42:09.607Z,6.63
2023-01-17T19:44:38.823Z,5.72
2023-01-17T19:47:10.863Z,7.63
2023-01-17T19:49:42.476Z,2.35
2023-01-17T19:52:13.128Z,4.20
2023-01-17T19:54:42.392Z,3.22
2023-01-17T19:57:13.274Z,5.63
2023-01-17T19:59:42.568Z,2.90
2023-01-17T20:02:12.421Z,3.25
2023-01-17T20:04:42.304Z,4.10
2023-01-17T20:07:11.742Z,8.68
2023-01-17T20:09:41.196Z,6.47
2023-01-17T20:12:10.997Z,10.38
2023-01-17T20:14:42.218Z,5.72
2023-01-17T20:17:11.437Z,6.63
2023-01-17T20:19:41.022Z,6.50
2023-01-17T20:22:11.486Z,8.35
2023-01-17T20:24:41.047Z,8.50
2023-01-17T20:27:10.203Z,12.00
2023-01-17T20:29:41.204Z,17.67
2023-01-17T20:32:10.364Z,8.32
2023-01-17T20:34:39.943Z,5.43
2023-01-17T20:37:09.214Z,7.80
2023-01-17T20:39:39.449Z,6.93
2023-01-17T20:42:08.940Z,7.15
2023-01-17T20:44:38.580Z,4.97
2023-01-17T20:47:09.318Z,6.25
2023-01-17T20:49:39.070Z,5.20
2023-01-17T20:52:08.364Z,5.55
2023-01-17T20:54:38.080Z,5.15
2023-01-17T20:57:07.240Z,4.00
2023-01-17T20:59:36.786Z,4.97
2023-01-17T21:02:06.187Z,3.20
2023-01-17T21:04:37.429Z,3.88
2023-01-17T21:07:06.855Z,4.00
2023-01-17T21:09:36.505Z,4.22
2023-01-17T21:12:05.807Z,5.03
2023-01-17T21:14:37.634Z,5.70
2023-01-17T21:17:07.776Z,5.05
2023-01-17T21:19:38.703Z,4.90
2023-01-17T21:22:08.039Z,4.78
2023-01-17T21:24:37.639Z,8.30
2023-01-17T21:27:06.802Z,5.25
2023-01-17T21:29:36.667Z,5.65
2023-01-17T21:32:06.387Z,8.02
2023-01-17T21:34:37.285Z,6.40
2023-01-17T21:37:06.542Z,7.82
2023-01-17T21:39:36.035Z,11.27
2023-01-17T21:42:05.338Z,10.05
2023-01-17T21:44:36.532Z,6.05
2023-01-17T21:47:06.016Z,4.53
2023-01-17T21:49:35.428Z,6.50
2023-01-17T21:52:21.250Z,6.90
2023-01-17T21:55:08.273Z,4.72
2023-01-17T21:57:55.301Z,6.55
2023-01-17T22:00:25.084Z,7.05
2023-01-17T22:02:54.208Z,5.63
2023-01-17T22:05:23.881Z,3.60
2023-01-17T22:08:15.269Z,12.85
2023-01-17T22:10:47.993Z,10.98
2023-01-17T22:13:19.367Z,13.48
2023-01-17T22:15:59.798Z,20.40
2023-01-17T22:18:29.489Z,16.15
2023-01-17T22:21:04.320Z,17.48
2023-01-17T22:23:35.173Z,14.38
2023-01-17T22:26:06.208Z,14.00
2023-01-17T22:28:35.843Z,18.38
2023-01-17T22:31:10.812Z,15.60
2023-01-17T22:33:41.305Z,17.07
2023-01-17T22:36:13.722Z,16.60
2023-01-17T22:38:44.939Z,17.35
2023-01-17T22:41:16.202Z,20.85
2023-01-17T22:43:47.789Z,40.45
2023-01-17T22:46:19.031Z,20.73
2023-01-17T22:48:48.722Z,8.55
2023-01-17T22:51:20.054Z,14.48
2023-01-17T22:53:52.003Z,14.70
2023-01-17T22:56:23.354Z,15.57
2023-01-17T22:58:52.949Z,12.70
2023-01-17T23:01:23.805Z,15.05
2023-01-17T23:03:54.477Z,13.25
2023-01-17T23:06:27.340Z,11.45
2023-01-17T23:08:59.517Z,9.35
2023-01-17T23:11:40.805Z,11.60
2023-01-17T23:14:16.085Z,13.15
2023-01-17T23:17:06.524Z,15.95
2023-01-17T23:19:37.588Z,16.73
2023-01-17T23:22:19.299Z,21.77
2023-01-17T23:24:53.038Z,18.80
2023-01-17T23:27:42.231Z,17.20
2023-01-17T23:30:13.743Z,17.38
2023-01-17T23:32:47.430Z,16.15
2023-01-17T23:35:17.338Z,22.33
2023-01-17T23:38:04.524Z,17.13
2023-01-17T23:40:36.530Z,16.13
2023-01-17T23:43:24.293Z,15.48
2023-01-17T23:45:55.169Z,13.95
2023-01-17T23:48:27.468Z,20.98
2023-01-17T23:50:59.976Z,15.15
2023-01-17T23:53:29.653Z,18.73
2023-01-17T23:56:05.562Z,18.83
2023-01-17T23:58:35.545Z,23.83
